createdAt,value
2019-02-16T00:01:16.798Z,101341.02
2019-02-16T00:03:46.491Z,101342.52
2019-02-16T00:06:15.980Z,101337.72
2019-02-16T00:08:46.064Z,101341.41
2019-02-16T00:11:15.546Z,101338.34
2019-02-16T00:13:46.095Z,101339.69
2019-02-16T00:16:15.624Z,101334.92
2019-02-16T00:18:45.084Z,101334.55
2019-02-16T00:21:14.607Z,101326.12
2019-02-16T00:23:44.127Z,101325.39
2019-02-16T00:26:13.664Z,101319.62
2019-02-16T00:28:43.153Z,101314.86
2019-02-16T00:31:13.974Z,101316.20
2019-02-16T00:33:43.408Z,101312.65
2019-02-16T00:36:13.033Z,101311.41
2019-02-16T00:38:42.567Z,101307.73
2019-02-16T00:41:13.017Z,101308.71
2019-02-16T00:43:42.490Z,101305.19
2019-02-16T00:46:12.405Z,101307.51
2019-02-16T00:48:41.869Z,101297.84
2019-02-16T00:51:13.645Z,101297.35
2019-02-16T00:53:42.528Z,101291.95
2019-02-16T00:56:12.075Z,101281.03
2019-02-16T00:58:41.549Z,101273.66
2019-02-16T01:01:11.008Z,101269.13
2019-02-16T01:03:40.444Z,101264.98
2019-02-16T01:06:10.058Z,101253.17
2019-02-16T01:08:39.558Z,101257.19
2019-02-16T01:11:09.057Z,101247.75
2019-02-16T01:13:38.598Z,101240.29
2019-02-16T01:16:08.079Z,101243.24
2019-02-16T01:18:37.740Z,101233.20
2019-02-16T01:21:07.236Z,101230.76
2019-02-16T01:23:36.763Z,101221.95
2019-02-16T01:26:06.449Z,101221.38
2019-02-16T01:28:35.884Z,101223.33
2019-02-16T01:31:05.693Z,101214.89
2019-02-16T01:33:35.208Z,101221.74
2019-02-16T01:36:04.809Z,101218.22
2019-02-16T01:38:34.270Z,101209.13
2019-02-16T01:41:03.722Z,101213.17
2019-02-16T01:43:33.325Z,101191.83
2019-02-16T01:46:02.786Z,101198.08
2019-02-16T01:48:32.259Z,101186.09
2019-02-16T01:51:01.729Z,101181.67
2019-02-16T01:53:31.203Z,101181.19
2019-02-16T01:56:00.654Z,101177.25
2019-02-16T01:58:30.207Z,101171.52
2019-02-16T02:01:01.907Z,101172.87
2019-02-16T02:03:31.371Z,101177.88
2019-02-16T02:06:00.923Z,101164.89
2019-02-16T02:08:30.446Z,101163.55
2019-02-16T02:10:59.996Z,101164.89
2019-02-16T02:13:29.536Z,101166.77
2019-02-16T02:15:59.138Z,101161.86
2019-02-16T02:18:28.606Z,101163.20
2019-02-16T02:20:58.126Z,101149.24
2019-02-16T02:23:27.653Z,101151.08
2019-02-16T02:25:57.631Z,101153.28
2019-02-16T02:28:27.132Z,101148.87
2019-02-16T02:30:56.614Z,101144.83
2019-02-16T02:33:26.064Z,101154.75
2019-02-16T02:35:55.580Z,101147.14
2019-02-16T02:38:25.121Z,101143.10
2019-02-16T02:40:54.584Z,101143.62
2019-02-16T02:43:25.353Z,101137.22
2019-02-16T02:45:55.585Z,101136.88
2019-02-16T02:48:25.062Z,101136.88
2019-02-16T02:50:54.896Z,101127.08
2019-02-16T02:53:31.189Z,101138.72
2019-02-16T02:55:55.565Z,101128.91
2019-02-16T02:58:25.058Z,101124.87
2019-02-16T03:00:54.933Z,101118.13
2019-02-16T03:03:24.446Z,101115.44
2019-02-16T03:05:54.202Z,101118.13
2019-02-16T03:08:23.848Z,101115.92
2019-02-16T03:10:53.293Z,101111.77
2019-02-16T03:13:22.959Z,101110.42
2019-02-16T03:15:52.401Z,101103.68
2019-02-16T03:18:21.880Z,101097.80
2019-02-16T03:20:51.346Z,101103.05
2019-02-16T03:23:22.029Z,101094.07
2019-02-16T03:26:44.599Z,101096.02
2019-02-16T03:29:33.532Z,101084.80
2019-02-16T03:32:38.457Z,101079.32
2019-02-16T03:35:34.706Z,101067.63
2019-02-16T03:38:41.021Z,101072.06
2019-02-16T03:41:10.597Z,101070.03
2019-02-16T03:43:40.143Z,101063.11
2019-02-16T03:46:09.615Z,101065.84
2019-02-16T03:48:39.187Z,101056.70
2019-02-16T03:51:08.603Z,101054.76
2019-02-16T03:53:38.128Z,101052.66
2019-02-16T03:56:07.737Z,101043.83
2019-02-16T03:58:37.248Z,101045.33
2019-02-16T04:01:06.682Z,101043.27
2019-02-16T04:03:38.349Z,101042.89
2019-02-16T04:06:07.853Z,101037.16
2019-02-16T04:08:37.328Z,101037.16
2019-02-16T04:11:06.919Z,101030.05
2019-02-16T04:13:36.369Z,101032.38
2019-02-16T04:16:06.397Z,101026.16
2019-02-16T04:18:35.895Z,101024.29
2019-02-16T04:21:05.427Z,101018.56
2019-02-16T04:23:34.933Z,101019.76
2019-02-16T04:26:08.370Z,101014.86
2019-02-16T04:28:38.197Z,101006.77
2019-02-16T04:31:08.757Z,101004.94
2019-02-16T04:33:38.268Z,100989.25
2019-02-16T04:36:07.732Z,100986.56
2019-02-16T04:38:37.295Z,100985.36
2019-02-16T04:41:06.807Z,100984.02
2019-02-16T04:43:36.357Z,100982.52
2019-02-16T04:46:05.827Z,100980.34
2019-02-16T04:48:35.337Z,100974.43
2019-02-16T04:51:04.854Z,100974.95
2019-02-16T04:53:34.292Z,100976.78
2019-02-16T04:56:03.799Z,100970.91
2019-02-16T04:58:33.248Z,100960.47
2019-02-16T05:01:02.688Z,100956.09
2019-02-16T05:03:32.158Z,100953.88
2019-02-16T05:06:01.668Z,100951.67
2019-02-16T05:08:31.190Z,100943.09
2019-02-16T05:11:00.659Z,100943.09
2019-02-16T05:13:30.124Z,100944.45
2019-02-16T05:15:59.666Z,100934.16
2019-02-16T05:18:29.175Z,100938.56
2019-02-16T05:20:58.725Z,100937.22
2019-02-16T05:23:28.226Z,100932.66
2019-02-16T05:25:57.681Z,100935.35
2019-02-16T05:28:27.140Z,100931.83
2019-02-16T05:30:56.688Z,100928.13
2019-02-16T05:33:26.221Z,100922.89
2019-02-16T05:35:55.703Z,100919.19
2019-02-16T05:38:25.235Z,100915.88
2019-02-16T05:40:54.816Z,100909.81
2019-02-16T05:43:24.321Z,100919.14
2019-02-16T05:45:53.863Z,100911.59
2019-02-16T05:48:23.407Z,100908.47
2019-02-16T05:50:52.868Z,100895.41
2019-02-16T05:53:22.394Z,100894.00
2019-02-16T05:55:51.924Z,100892.41
2019-02-16T05:58:21.397Z,100888.36
2019-02-16T06:00:50.962Z,100893.80
2019-02-16T06:03:20.424Z,100885.02
2019-02-16T06:05:49.888Z,100886.52
2019-02-16T06:08:19.402Z,100888.30
2019-02-16T06:10:48.897Z,100877.45
2019-02-16T06:13:18.332Z,100884.25
2019-02-16T06:15:48.208Z,100879.44
2019-02-16T06:18:17.687Z,100880.51
2019-02-16T06:20:49.437Z,100879.86
2019-02-16T06:23:18.947Z,100880.56
2019-02-16T06:25:48.424Z,100885.68
2019-02-16T06:28:18.005Z,100885.03
2019-02-16T06:30:47.531Z,100879.09
2019-02-16T06:33:17.040Z,100881.12
2019-02-16T06:35:52.124Z,100874.87
2019-02-16T06:38:21.589Z,100874.59
2019-02-16T06:40:51.107Z,100874.81
2019-02-16T06:43:20.742Z,100864.57
2019-02-16T06:45:50.232Z,100867.69
2019-02-16T06:48:19.767Z,100865.77
2019-02-16T06:50:49.271Z,100866.89
2019-02-16T06:53:18.788Z,100858.59
2019-02-16T06:55:58.561Z,100861.66
2019-02-16T06:58:28.073Z,100856.81
2019-02-16T07:00:57.541Z,100863.43
2019-02-16T07:03:27.109Z,100862.58
2019-02-16T07:05:56.565Z,100861.34
2019-02-16T07:08:26.173Z,100858.80
2019-02-16T07:10:55.637Z,100856.59
2019-02-16T07:13:25.155Z,100855.25
2019-02-16T07:16:12.322Z,100846.45
2019-02-16T07:18:50.171Z,100856.87
2019-02-16T07:21:19.622Z,100852.34
2019-02-16T07:23:49.110Z,100859.56
2019-02-16T07:26:18.621Z,100863.27
2019-02-16T07:28:48.159Z,100846.23
2019-02-16T07:31:17.654Z,100842.69
2019-02-16T07:33:47.181Z,100844.03
2019-02-16T07:36:16.672Z,100849.27
2019-02-16T07:38:46.116Z,100850.50
2019-02-16T07:41:15.736Z,100846.83
2019-02-16T07:44:02.736Z,100848.02
2019-02-16T07:46:48.137Z,100845.75
2019-02-16T07:49:23.247Z,100842.23
2019-02-16T07:51:57.973Z,100838.19
2019-02-16T07:54:52.496Z,100847.07
2019-02-16T07:57:44.184Z,100843.14
2019-02-16T08:00:32.616Z,100837.83
2019-02-16T08:03:14.375Z,100831.66
2019-02-16T08:05:58.980Z,100831.23
2019-02-16T08:08:47.462Z,100821.17
2019-02-16T08:11:35.819Z,100819.66
2019-02-16T08:14:18.295Z,100800.65
2019-02-16T08:16:58.956Z,100815.70
2019-02-16T08:19:47.399Z,100813.37
2019-02-16T08:22:26.126Z,100789.41
2019-02-16T08:25:09.348Z,100812.72
2019-02-16T08:27:47.774Z,100795.67
2019-02-16T08:30:40.583Z,100799.02
2019-02-16T08:33:23.723Z,100799.18
2019-02-16T08:36:08.230Z,100800.92
2019-02-16T08:39:00.019Z,100802.25
2019-02-16T08:41:44.627Z,100800.64
2019-02-16T08:44:25.595Z,100798.87
2019-02-16T08:47:13.036Z,100796.60
2019-02-16T08:50:00.482Z,100795.05
2019-02-16T08:52:49.723Z,100788.70
2019-02-16T08:55:36.495Z,100790.33
2019-02-16T08:58:16.660Z,100796.85
2019-02-16T09:00:56.931Z,100796.03
2019-02-16T09:03:54.424Z,100794.68
2019-02-16T09:06:42.797Z,100797.87
2019-02-16T09:09:31.255Z,100781.81
2019-02-16T09:12:19.634Z,100786.71
2019-02-16T09:15:20.197Z,100776.30
2019-02-16T09:18:11.889Z,100773.60
2019-02-16T09:20:59.154Z,100774.45
2019-02-16T09:23:58.860Z,100784.39
2019-02-16T09:26:49.716Z,100776.78
2019-02-16T09:29:28.145Z,100773.60
2019-02-16T09:32:06.841Z,100768.55
2019-02-16T09:34:44.986Z,100760.45
2019-02-16T09:37:36.256Z,100761.31
2019-02-16T09:40:24.830Z,100767.93
2019-02-16T09:43:04.232Z,100775.00
2019-02-16T09:45:46.825Z,100765.78
2019-02-16T09:48:41.734Z,100760.81
2019-02-16T09:51:28.884Z,100754.80
2019-02-16T09:54:35.613Z,100742.52
2019-02-16T09:57:39.246Z,100723.27
2019-02-16T10:00:39.623Z,100714.35
2019-02-16T10:03:14.994Z,100703.05
2019-02-16T10:06:01.625Z,100718.40
2019-02-16T10:08:42.124Z,100720.45
2019-02-16T10:11:39.654Z,100716.61
2019-02-16T10:14:36.971Z,100727.24
2019-02-16T10:17:16.396Z,100707.02
2019-02-16T10:19:56.491Z,100705.88
2019-02-16T10:22:44.915Z,100697.66
2019-02-16T10:25:36.197Z,100689.08
2019-02-16T10:28:26.287Z,100695.66
2019-02-16T10:31:14.821Z,100684.71
2019-02-16T10:34:09.127Z,100682.74
2019-02-16T10:37:12.480Z,100685.65
2019-02-16T10:39:59.506Z,100677.44
2019-02-16T10:42:48.036Z,100666.44
2019-02-16T10:45:35.603Z,100664.52
2019-02-16T10:48:20.538Z,100651.95
2019-02-16T10:50:58.501Z,100646.80
2019-02-16T10:54:02.227Z,100637.42
2019-02-16T10:56:46.998Z,100636.97
2019-02-16T10:59:35.401Z,100624.46
2019-02-16T11:02:20.299Z,100625.52
2019-02-16T11:05:14.913Z,100628.58
2019-02-16T11:08:02.978Z,100615.28
2019-02-16T11:10:52.968Z,100619.83
2019-02-16T11:13:41.341Z,100612.38
2019-02-16T11:16:51.199Z,100618.97
2019-02-16T11:19:39.603Z,100611.36
2019-02-16T11:22:28.034Z,100604.13
2019-02-16T11:25:19.005Z,100597.87
2019-02-16T11:28:13.062Z,100587.44
2019-02-16T11:31:01.021Z,100576.14
2019-02-16T11:33:48.126Z,100575.98
2019-02-16T11:36:36.815Z,100573.64
2019-02-16T11:39:16.550Z,100562.48
2019-02-16T11:42:07.940Z,100556.75
2019-02-16T11:45:02.748Z,100548.98
2019-02-16T11:48:00.790Z,100538.19
2019-02-16T11:50:49.337Z,100551.69
2019-02-16T11:53:37.811Z,100554.39
2019-02-16T11:56:26.239Z,100554.39
2019-02-16T11:59:09.446Z,100549.84
2019-02-16T12:01:48.887Z,100554.75
2019-02-16T12:04:42.476Z,100551.00
2019-02-16T12:07:31.476Z,100547.25
2019-02-16T12:10:23.110Z,100553.80
2019-02-16T12:13:26.591Z,100541.45
2019-02-16T12:16:23.868Z,100546.16
2019-02-16T12:19:14.773Z,100544.45
2019-02-16T12:22:06.481Z,100545.97
2019-02-16T12:25:05.988Z,100529.28
2019-02-16T12:27:47.354Z,100514.93
2019-02-16T12:30:35.717Z,100520.66
2019-02-16T12:33:25.121Z,100521.87
2019-02-16T12:36:22.549Z,100521.21
2019-02-16T12:39:05.114Z,100530.16
2019-02-16T12:41:47.727Z,100529.50
2019-02-16T12:44:45.296Z,100545.20
2019-02-16T12:47:25.545Z,100550.11
2019-02-16T12:50:13.981Z,100554.48
2019-02-16T12:53:02.355Z,100544.41
2019-02-16T12:55:52.596Z,100553.70
2019-02-16T12:58:31.855Z,100551.36
2019-02-16T13:01:11.181Z,100544.94
2019-02-16T13:04:14.978Z,100535.36
2019-02-16T13:07:03.227Z,100523.41
2019-02-16T13:09:46.468Z,100528.83
2019-02-16T13:12:35.290Z,100519.08
2019-02-16T13:15:28.694Z,100507.13
2019-02-16T13:18:08.360Z,100512.36
2019-02-16T13:21:08.671Z,100500.41
2019-02-16T13:23:47.555Z,100503.83
2019-02-16T13:26:50.840Z,100496.55
2019-02-16T13:29:37.824Z,100492.17
2019-02-16T13:32:24.809Z,100482.85
2019-02-16T13:35:28.079Z,100465.28
2019-02-16T13:38:19.260Z,100455.15
2019-02-16T13:41:00.612Z,100454.13
2019-02-16T13:43:47.938Z,100414.16
2019-02-16T13:46:24.994Z,100417.19
2019-02-16T13:49:00.449Z,100426.44
2019-02-16T13:51:48.871Z,100439.94
2019-02-16T13:54:26.941Z,100439.94
2019-02-16T13:57:15.377Z,100444.48
2019-02-16T14:00:03.855Z,100440.44
2019-02-16T14:03:01.399Z,100428.95
2019-02-16T14:06:05.159Z,100423.72
2019-02-16T14:09:08.630Z,100432.31
2019-02-16T14:12:02.860Z,100426.55
2019-02-16T14:14:49.887Z,100419.81
2019-02-16T14:17:38.263Z,100422.18
2019-02-16T14:20:08.664Z,100430.77
2019-02-16T14:22:38.290Z,100441.21
2019-02-16T14:25:10.353Z,100442.23
2019-02-16T14:27:40.126Z,100439.67
2019-02-16T14:30:10.835Z,100437.63
2019-02-16T14:32:40.360Z,100426.64
2019-02-16T14:35:10.165Z,100438.59
2019-02-16T14:37:58.604Z,100433.02
2019-02-16T14:40:31.768Z,100427.75
2019-02-16T14:43:01.763Z,100435.16
2019-02-16T14:45:33.420Z,100426.87
2019-02-16T14:48:03.008Z,100428.71
2019-02-16T14:50:32.556Z,100431.75
2019-02-16T14:53:02.562Z,100419.93
2019-02-16T14:55:32.283Z,100423.13
2019-02-16T14:58:01.848Z,100428.02
2019-02-16T15:00:31.383Z,100423.13
2019-02-16T15:03:00.872Z,100412.00
2019-02-16T15:05:30.419Z,100409.80
2019-02-16T15:07:59.901Z,100417.53
2019-02-16T15:10:29.459Z,100420.59
2019-02-16T15:12:59.013Z,100418.25
2019-02-16T15:15:28.625Z,100426.17
2019-02-16T15:17:58.287Z,100437.83
2019-02-16T15:20:27.739Z,100435.12
2019-02-16T15:22:57.314Z,100446.78
2019-02-16T15:25:26.848Z,100454.34
2019-02-16T15:27:56.421Z,100458.56
2019-02-16T15:30:25.997Z,100474.45
2019-02-16T15:32:55.538Z,100480.70
2019-02-16T15:35:25.005Z,100479.19
2019-02-16T15:37:54.558Z,100499.98
2019-02-16T15:40:24.064Z,100493.92
2019-02-16T15:42:53.662Z,100507.13
2019-02-16T15:45:23.249Z,100505.77
2019-02-16T15:47:52.748Z,100514.36
2019-02-16T15:50:22.391Z,100514.36
2019-02-16T15:52:51.908Z,100501.17
2019-02-16T15:55:21.414Z,100513.48
2019-02-16T15:57:51.342Z,100519.86
2019-02-16T16:00:22.989Z,100522.73
2019-02-16T16:02:52.497Z,100527.92
2019-02-16T16:05:22.089Z,100533.62
2019-02-16T16:08:07.162Z,100537.97
2019-02-16T16:11:01.516Z,100538.63
2019-02-16T16:13:41.575Z,100547.34
2019-02-16T16:16:30.009Z,100565.73
2019-02-16T16:19:17.310Z,100583.08
2019-02-16T16:22:04.606Z,100579.03
2019-02-16T16:24:48.590Z,100575.64
2019-02-16T16:27:42.567Z,100582.75
2019-02-16T16:30:32.476Z,100578.70
2019-02-16T16:33:30.750Z,100576.49
2019-02-16T16:36:17.849Z,100576.09
2019-02-16T16:39:15.427Z,100588.04
2019-02-16T16:42:03.835Z,100585.21
2019-02-16T16:44:38.991Z,100596.00
2019-02-16T16:47:27.549Z,100608.02
2019-02-16T16:50:21.955Z,100604.83
2019-02-16T16:53:03.856Z,100609.36
2019-02-16T16:55:50.909Z,100605.45
2019-02-16T16:58:54.761Z,100626.83
2019-02-16T17:01:41.810Z,100634.35
2019-02-16T17:04:39.695Z,100650.83
2019-02-16T17:07:28.077Z,100653.81
2019-02-16T17:10:31.431Z,100649.93
2019-02-16T17:13:19.848Z,100660.36
2019-02-16T17:16:04.917Z,100657.81
2019-02-16T17:18:40.059Z,100663.70
2019-02-16T17:21:28.866Z,100665.22
2019-02-16T17:24:09.596Z,100667.05
2019-02-16T17:26:47.670Z,100667.70
2019-02-16T17:29:36.076Z,100666.84
2019-02-16T17:32:39.381Z,100663.98
2019-02-16T17:35:26.352Z,100666.84
2019-02-16T17:38:02.474Z,100676.78
2019-02-16T17:40:53.006Z,100678.28
2019-02-16T17:43:44.641Z,100678.62
2019-02-16T17:46:42.219Z,100682.74
2019-02-16T17:49:45.849Z,100685.98
2019-02-16T17:52:37.072Z,100682.14
2019-02-16T17:55:22.661Z,100686.27
2019-02-16T17:58:16.815Z,100687.16
2019-02-16T18:01:17.282Z,100697.05
2019-02-16T18:04:05.668Z,100693.58
2019-02-16T18:06:59.991Z,100695.62
2019-02-16T18:09:48.873Z,100692.14
2019-02-16T18:12:31.679Z,100697.38
2019-02-16T18:15:25.998Z,100694.52
2019-02-16T18:18:29.412Z,100697.38
2019-02-16T18:21:17.928Z,100719.45
2019-02-16T18:24:09.169Z,100717.05
2019-02-16T18:27:01.886Z,100716.22
2019-02-16T18:29:56.028Z,100717.20
2019-02-16T18:32:38.403Z,100716.72
2019-02-16T18:35:25.290Z,100715.65
2019-02-16T18:38:11.789Z,100712.95
2019-02-16T18:41:00.281Z,100711.00
2019-02-16T18:43:54.346Z,100713.00
2019-02-16T18:46:42.738Z,100704.05
2019-02-16T18:49:30.646Z,100715.13
2019-02-16T18:52:21.887Z,100727.02
2019-02-16T18:55:19.710Z,100715.32
2019-02-16T18:58:00.355Z,100728.39
2019-02-16T19:00:35.685Z,100739.46
2019-02-16T19:03:21.229Z,100739.59
2019-02-16T19:06:12.670Z,100742.93
2019-02-16T19:09:10.237Z,100742.23
2019-02-16T19:11:58.606Z,100747.75
2019-02-16T19:14:58.965Z,100761.88
2019-02-16T19:17:40.190Z,100744.35
2019-02-16T19:20:29.381Z,100752.11
2019-02-16T19:23:22.651Z,100755.30
2019-02-16T19:26:18.081Z,100761.67
2019-02-16T19:28:53.532Z,100765.50
2019-02-16T19:31:33.932Z,100762.97
2019-02-16T19:34:40.797Z,100767.98
2019-02-16T19:37:19.631Z,100780.48
2019-02-16T19:39:57.874Z,100778.41
2019-02-16T19:42:49.070Z,100779.91
2019-02-16T19:45:46.309Z,100778.56
2019-02-16T19:48:25.905Z,100786.28
2019-02-16T19:51:05.515Z,100797.59
2019-02-16T19:53:41.802Z,100793.17
2019-02-16T19:56:30.175Z,100802.98
2019-02-16T19:59:21.636Z,100799.77
2019-02-16T20:02:10.140Z,100801.57
2019-02-16T20:05:07.604Z,100816.19
2019-02-16T20:07:45.591Z,100812.89
2019-02-16T20:10:32.468Z,100816.54
2019-02-16T20:13:23.699Z,100812.43
2019-02-16T20:16:21.103Z,100816.03
2019-02-16T20:19:09.497Z,100820.78
2019-02-16T20:21:57.997Z,100822.71
2019-02-16T20:24:37.531Z,100824.27
2019-02-16T20:27:37.440Z,100825.95
2019-02-16T20:30:22.162Z,100834.58
2019-02-16T20:33:09.510Z,100847.42
2019-02-16T20:36:04.231Z,100855.27
2019-02-16T20:38:40.480Z,100855.48
2019-02-16T20:41:21.451Z,100860.72
2019-02-16T20:44:15.835Z,100860.72
2019-02-16T20:47:00.043Z,100866.48
2019-02-16T20:49:47.470Z,100863.29
2019-02-16T20:52:35.824Z,100861.94
2019-02-16T20:55:27.214Z,100880.83
2019-02-16T20:58:17.771Z,100885.86
2019-02-16T21:01:06.282Z,100883.81
2019-02-16T21:03:47.549Z,100888.63
2019-02-16T21:06:45.354Z,100897.24
2019-02-16T21:09:41.076Z,100892.06
2019-02-16T21:12:30.946Z,100896.97
2019-02-16T21:15:28.415Z,100891.27
2019-02-16T21:18:20.093Z,100898.92
2019-02-16T21:21:04.257Z,100897.14
2019-02-16T21:23:41.879Z,100901.09
2019-02-16T21:26:39.509Z,100908.84
2019-02-16T21:29:18.229Z,100908.63
2019-02-16T21:32:03.105Z,100906.57
2019-02-16T21:34:51.638Z,100917.48
2019-02-16T21:37:28.505Z,100923.73
2019-02-16T21:40:19.597Z,100931.11
2019-02-16T21:43:14.156Z,100937.14
2019-02-16T21:46:11.861Z,100946.70
2019-02-16T21:49:06.183Z,100955.27
2019-02-16T21:51:50.564Z,100964.70
2019-02-16T21:54:26.663Z,100958.61
2019-02-16T21:57:03.891Z,100961.45
2019-02-16T21:59:55.402Z,100969.02
2019-02-16T22:02:59.029Z,100972.84
2019-02-16T22:06:05.796Z,100969.92
2019-02-16T22:08:56.919Z,100973.63
2019-02-16T22:11:49.760Z,100972.13
2019-02-16T22:14:19.422Z,100972.45
2019-02-16T22:16:49.053Z,100979.27
2019-02-16T22:19:19.167Z,100980.98
2019-02-16T22:21:48.909Z,100986.87
2019-02-16T22:24:18.438Z,100985.89
2019-02-16T22:26:48.075Z,100980.34
2019-02-16T22:29:17.605Z,100967.31
2019-02-16T22:31:47.258Z,100977.67
2019-02-16T22:34:16.920Z,100973.84
2019-02-16T22:36:46.611Z,100973.46
2019-02-16T22:39:16.168Z,100971.32
2019-02-16T22:41:46.048Z,100976.59
2019-02-16T22:44:15.544Z,100976.59
2019-02-16T22:46:45.065Z,100980.13
2019-02-16T22:49:14.749Z,100984.80
2019-02-16T22:51:44.468Z,100978.06
2019-02-16T22:54:14.294Z,100978.28
2019-02-16T22:56:43.837Z,100993.34
2019-02-16T22:59:14.919Z,100999.95
2019-02-16T23:01:44.491Z,101003.52
2019-02-16T23:04:14.424Z,101001.80
2019-02-16T23:06:43.959Z,101003.15
2019-02-16T23:09:24.057Z,101001.20
2019-02-16T23:11:53.596Z,101001.41
2019-02-16T23:14:24.284Z,101011.16
2019-02-16T23:16:53.954Z,101018.09
2019-02-16T23:19:23.735Z,101018.62
2019-02-16T23:21:53.221Z,101030.20
2019-02-16T23:24:23.530Z,101038.06
2019-02-16T23:27:18.054Z,101039.19
2019-02-16T23:29:48.348Z,101041.66
2019-02-16T23:32:18.177Z,101047.76
2019-02-16T23:34:50.281Z,101049.11
2019-02-16T23:37:19.787Z,101047.05
2019-02-16T23:39:49.394Z,101051.58
2019-02-16T23:42:21.723Z,101058.09
2019-02-16T23:44:53.597Z,101052.33
2019-02-16T23:47:23.341Z,101065.46
2019-02-16T23:49:53.005Z,101072.31
2019-02-16T23:52:25.105Z,101073.31
2019-02-16T23:54:53.988Z,101078.82
2019-02-16T23:57:23.879Z,101074.78
2019-02-16T23:59:53.637Z,101079.31
